createdAt,value
2022-08-27T00:01:51.576Z,1.83
2022-08-27T00:04:18.603Z,2.03
2022-08-27T00:06:48.986Z,2.00
2022-08-27T00:09:16.045Z,2.20
2022-08-27T00:11:50.890Z,2.23
2022-08-27T00:14:17.915Z,1.73
2022-08-27T00:16:45.061Z,2.43
2022-08-27T00:19:12.343Z,2.33
2022-08-27T00:21:39.438Z,1.83
2022-08-27T00:24:10.670Z,2.30
2022-08-27T00:26:42.664Z,1.87
2022-08-27T00:29:10.542Z,2.53
2022-08-27T00:31:43.661Z,2.33
2022-08-27T00:34:13.022Z,2.20
2022-08-27T00:36:41.500Z,1.67
2022-08-27T00:39:08.645Z,1.90
2022-08-27T00:41:39.073Z,1.77
2022-08-27T00:44:07.154Z,1.83
2022-08-27T00:46:49.438Z,1.60
2022-08-27T00:49:49.368Z,2.27
2022-08-27T00:52:42.727Z,1.80
2022-08-27T00:55:18.881Z,1.77
2022-08-27T00:58:01.923Z,1.80
2022-08-27T01:00:31.940Z,1.60
2022-08-27T01:02:58.865Z,2.03
2022-08-27T01:05:28.086Z,1.93
2022-08-27T01:08:04.476Z,2.00
2022-08-27T01:10:32.107Z,2.17
2022-08-27T01:12:59.127Z,1.90
2022-08-27T01:15:30.291Z,1.90
2022-08-27T01:17:58.879Z,1.60
2022-08-27T01:20:54.610Z,1.83
2022-08-27T01:23:30.044Z,1.80
2022-08-27T01:25:59.439Z,2.03
2022-08-27T01:28:35.755Z,1.90
2022-08-27T01:31:09.400Z,2.00
2022-08-27T01:33:37.142Z,2.10
2022-08-27T01:36:05.324Z,1.93
2022-08-27T01:38:34.552Z,2.00
2022-08-27T01:41:03.716Z,1.80
2022-08-27T01:43:33.822Z,1.63
2022-08-27T01:46:00.881Z,1.90
2022-08-27T01:48:27.830Z,1.70
2022-08-27T01:50:54.906Z,2.57
2022-08-27T01:53:26.536Z,2.40
2022-08-27T01:55:55.335Z,2.07
2022-08-27T01:58:27.255Z,2.10
2022-08-27T02:01:00.767Z,3.17
2022-08-27T02:03:27.943Z,2.00
2022-08-27T02:05:55.178Z,1.80
2022-08-27T02:08:22.521Z,2.03
2022-08-27T02:10:50.510Z,1.93
2022-08-27T02:13:18.765Z,2.50
2022-08-27T02:15:45.939Z,2.00
2022-08-27T02:18:13.992Z,2.03
2022-08-27T02:20:44.748Z,2.50
2022-08-27T02:23:12.388Z,2.37
2022-08-27T02:25:41.016Z,1.93
2022-08-27T02:28:09.092Z,2.23
2022-08-27T02:30:37.677Z,2.17
2022-08-27T02:33:06.142Z,2.00
2022-08-27T02:35:40.520Z,2.20
2022-08-27T02:38:08.394Z,2.10
2022-08-27T02:40:37.325Z,2.17
2022-08-27T02:43:05.045Z,2.10
2022-08-27T02:45:31.970Z,2.53
2022-08-27T02:47:59.008Z,2.00
2022-08-27T02:50:27.391Z,2.30
2022-08-27T02:52:55.200Z,2.33
2022-08-27T02:55:23.053Z,2.60
2022-08-27T02:57:53.250Z,1.87
2022-08-27T03:00:25.442Z,2.10
2022-08-27T03:02:52.634Z,2.47
2022-08-27T03:05:20.355Z,2.10
2022-08-27T03:07:47.398Z,2.43
2022-08-27T03:10:17.844Z,2.30
2022-08-27T03:12:47.886Z,2.30
2022-08-27T03:15:19.099Z,2.07
2022-08-27T03:18:09.466Z,2.10
2022-08-27T03:20:44.000Z,2.43
2022-08-27T03:23:12.811Z,2.83
2022-08-27T03:25:40.177Z,2.40
2022-08-27T03:28:20.661Z,2.40
2022-08-27T03:31:01.326Z,2.27
2022-08-27T03:33:35.505Z,2.30
2022-08-27T03:36:02.875Z,2.13
2022-08-27T03:38:33.350Z,2.00
2022-08-27T03:41:01.952Z,2.13
2022-08-27T03:43:34.478Z,2.50
2022-08-27T03:46:05.136Z,2.03
2022-08-27T03:48:32.814Z,2.40
2022-08-27T03:51:06.603Z,2.10
2022-08-27T03:53:35.631Z,2.03
2022-08-27T03:56:02.983Z,1.87
2022-08-27T03:58:30.444Z,2.40
2022-08-27T04:00:57.377Z,2.13
2022-08-27T04:03:24.969Z,2.40
2022-08-27T04:05:57.244Z,2.10
2022-08-27T04:08:25.943Z,2.23
2022-08-27T04:10:55.127Z,2.17
2022-08-27T04:13:23.753Z,2.13
2022-08-27T04:15:56.675Z,2.07
2022-08-27T04:18:23.772Z,2.00
2022-08-27T04:20:54.629Z,2.23
2022-08-27T04:23:21.935Z,2.30
2022-08-27T04:25:48.969Z,2.10
2022-08-27T04:28:18.217Z,2.30
2022-08-27T04:30:49.685Z,2.07
2022-08-27T04:33:19.292Z,2.27
2022-08-27T04:35:46.211Z,2.57
2022-08-27T04:38:15.825Z,2.20
2022-08-27T04:41:04.196Z,2.20
2022-08-27T04:43:31.055Z,2.33
2022-08-27T04:45:58.309Z,2.50
2022-08-27T04:48:27.259Z,5.37
2022-08-27T04:50:54.532Z,6.83
2022-08-27T04:53:22.154Z,6.67
2022-08-27T04:55:58.136Z,7.53
2022-08-27T04:58:28.102Z,8.23
2022-08-27T05:01:00.095Z,8.43
2022-08-27T05:03:28.535Z,7.50
2022-08-27T05:06:04.026Z,5.50
2022-08-27T05:08:35.649Z,5.43
2022-08-27T05:11:03.014Z,5.20
2022-08-27T05:13:33.049Z,4.30
2022-08-27T05:16:06.118Z,4.30
2022-08-27T05:18:47.684Z,3.83
2022-08-27T05:21:32.479Z,3.10
2022-08-27T05:24:06.164Z,3.23
2022-08-27T05:26:36.084Z,3.20
2022-08-27T05:29:06.109Z,2.80
2022-08-27T05:31:34.622Z,2.70
2022-08-27T05:34:03.282Z,3.13
2022-08-27T05:36:38.641Z,3.00
2022-08-27T05:39:17.565Z,2.93
2022-08-27T05:41:44.785Z,2.57
2022-08-27T05:44:39.429Z,3.00
2022-08-27T05:47:05.372Z,2.97
2022-08-27T05:49:32.582Z,2.73
2022-08-27T05:52:05.688Z,2.43
2022-08-27T05:54:36.318Z,2.67
2022-08-27T05:57:03.474Z,3.00
2022-08-27T05:59:51.908Z,2.63
2022-08-27T06:02:29.369Z,2.90
2022-08-27T06:05:07.478Z,2.80
2022-08-27T06:07:38.118Z,2.93
2022-08-27T06:10:09.814Z,3.07
2022-08-27T06:12:36.859Z,3.10
2022-08-27T06:15:07.897Z,3.10
2022-08-27T06:17:35.024Z,3.47
2022-08-27T06:20:05.657Z,3.23
2022-08-27T06:22:32.703Z,2.90
2022-08-27T06:25:04.982Z,2.87
2022-08-27T06:27:32.131Z,2.73
2022-08-27T06:30:02.543Z,3.00
2022-08-27T06:32:30.009Z,2.50
2022-08-27T06:34:59.242Z,3.30
2022-08-27T06:37:27.382Z,3.20
2022-08-27T06:39:54.318Z,2.80
2022-08-27T06:42:24.222Z,3.40
2022-08-27T06:44:57.607Z,2.97
2022-08-27T06:47:36.335Z,3.17
2022-08-27T06:50:07.278Z,2.93
2022-08-27T06:52:36.386Z,3.57
2022-08-27T06:55:04.337Z,2.70
2022-08-27T06:57:31.426Z,3.63
2022-08-27T06:59:58.626Z,3.10
2022-08-27T07:02:29.243Z,3.50
2022-08-27T07:04:56.910Z,2.63
2022-08-27T07:07:28.065Z,3.33
2022-08-27T07:10:02.476Z,2.80
2022-08-27T07:12:31.297Z,3.37
2022-08-27T07:14:58.612Z,2.97
2022-08-27T07:17:26.795Z,3.00
2022-08-27T07:19:53.891Z,3.03
2022-08-27T07:22:23.352Z,2.50
2022-08-27T07:24:51.756Z,2.33
2022-08-27T07:27:20.573Z,2.77
2022-08-27T07:29:47.994Z,2.13
2022-08-27T07:32:23.986Z,2.60
2022-08-27T07:34:57.830Z,2.27
2022-08-27T07:37:26.270Z,2.20
2022-08-27T07:40:05.746Z,2.23
2022-08-27T07:42:54.723Z,2.07
2022-08-27T07:45:22.289Z,2.40
2022-08-27T07:47:57.423Z,2.63
2022-08-27T07:50:33.499Z,2.53
2022-08-27T07:53:01.886Z,2.27
2022-08-27T07:55:29.216Z,2.50
2022-08-27T07:57:56.969Z,2.47
2022-08-27T08:00:27.468Z,2.43
2022-08-27T08:02:54.762Z,2.40
2022-08-27T08:05:21.880Z,2.77
2022-08-27T08:07:49.060Z,2.70
2022-08-27T08:10:16.721Z,2.63
2022-08-27T08:13:08.918Z,2.67
2022-08-27T08:15:38.137Z,3.80
2022-08-27T08:18:07.038Z,3.07
2022-08-27T08:21:06.021Z,2.60
2022-08-27T08:23:46.648Z,2.23
2022-08-27T08:26:17.651Z,2.47
2022-08-27T08:29:04.789Z,2.37
2022-08-27T08:31:34.207Z,2.43
2022-08-27T08:34:07.089Z,2.00
2022-08-27T08:36:36.998Z,2.93
2022-08-27T08:39:05.434Z,2.83
2022-08-27T08:41:40.960Z,2.37
2022-08-27T08:44:40.128Z,2.77
2022-08-27T08:47:33.389Z,3.07
2022-08-27T08:50:37.564Z,2.47
2022-08-27T08:53:23.558Z,2.63
2022-08-27T08:56:05.125Z,2.97
2022-08-27T08:58:56.748Z,2.50
2022-08-27T09:01:28.659Z,2.67
2022-08-27T09:04:04.235Z,3.10
2022-08-27T09:06:43.817Z,2.63
2022-08-27T09:09:55.297Z,2.50
2022-08-27T09:12:30.660Z,3.33
2022-08-27T09:15:05.826Z,3.00
2022-08-27T09:17:41.940Z,2.80
2022-08-27T09:20:13.096Z,2.87
2022-08-27T09:23:18.134Z,2.70
2022-08-27T09:25:53.244Z,2.70
2022-08-27T09:28:52.852Z,2.80
2022-08-27T09:31:23.235Z,2.53
2022-08-27T09:33:56.555Z,3.10
2022-08-27T09:36:28.135Z,3.17
2022-08-27T09:39:04.023Z,2.93
2022-08-27T09:41:46.392Z,3.00
2022-08-27T09:44:19.549Z,3.13
2022-08-27T09:47:22.872Z,3.10
2022-08-27T09:50:10.725Z,3.70
2022-08-27T09:53:05.405Z,3.30
2022-08-27T09:56:03.460Z,3.27
2022-08-27T09:59:03.102Z,2.83
2022-08-27T10:01:57.476Z,2.70
2022-08-27T10:04:50.815Z,2.70
2022-08-27T10:07:55.151Z,3.00
2022-08-27T10:10:29.928Z,3.17
2022-08-27T10:13:10.573Z,3.37
2022-08-27T10:16:04.594Z,3.00
2022-08-27T10:18:49.865Z,3.03
2022-08-27T10:21:29.856Z,3.13
2022-08-27T10:24:36.323Z,3.10
2022-08-27T10:27:38.630Z,3.20
2022-08-27T10:30:08.738Z,3.30
2022-08-27T10:32:44.759Z,3.07
2022-08-27T10:35:29.264Z,3.07
2022-08-27T10:38:01.984Z,3.60
2022-08-27T10:41:05.839Z,2.80
2022-08-27T10:44:09.287Z,3.00
2022-08-27T10:47:27.584Z,3.40
2022-08-27T10:50:49.047Z,3.50
2022-08-27T10:53:45.354Z,3.40
2022-08-27T10:56:47.674Z,3.50
2022-08-27T11:00:12.731Z,3.40
2022-08-27T11:03:14.055Z,3.37
2022-08-27T11:05:52.951Z,3.10
2022-08-27T11:08:40.797Z,3.80
2022-08-27T11:15:13.048Z,3.57
2022-08-27T11:18:24.027Z,2.80
2022-08-27T11:21:18.273Z,3.20
2022-08-27T11:24:08.636Z,3.60
2022-08-27T11:26:45.293Z,3.73
2022-08-27T11:30:04.750Z,3.47
2022-08-27T11:32:50.074Z,4.03
2022-08-27T11:35:48.764Z,4.17
2022-08-27T11:39:04.887Z,4.10
2022-08-27T11:42:19.343Z,4.20
2022-08-27T11:44:51.403Z,4.40
2022-08-27T11:47:25.611Z,4.57
2022-08-27T11:50:01.389Z,5.03
2022-08-27T11:52:58.232Z,5.63
2022-08-27T11:55:39.094Z,5.33
2022-08-27T11:58:18.412Z,5.57
2022-08-27T12:00:48.446Z,5.53
2022-08-27T12:03:35.416Z,5.00
2022-08-27T12:06:22.596Z,5.73
2022-08-27T12:08:49.616Z,4.90
2022-08-27T12:11:37.927Z,5.33
2022-08-27T12:14:29.777Z,5.03
2022-08-27T12:17:36.546Z,5.17
2022-08-27T12:20:36.827Z,6.10
2022-08-27T12:23:39.905Z,5.43
2022-08-27T12:26:26.217Z,5.13
2022-08-27T12:29:43.954Z,5.60
2022-08-27T12:32:40.138Z,4.70
2022-08-27T12:35:50.584Z,5.37
2022-08-27T12:38:52.291Z,5.77
2022-08-27T12:41:53.367Z,5.40
2022-08-27T12:44:27.038Z,5.53
2022-08-27T12:47:10.788Z,5.27
2022-08-27T12:50:22.460Z,5.13
2022-08-27T12:53:31.474Z,4.30
2022-08-27T12:56:25.470Z,4.88
2022-08-27T12:59:12.458Z,4.75
2022-08-27T13:02:06.658Z,4.40
2022-08-27T13:04:43.970Z,4.55
2022-08-27T13:07:26.444Z,4.53
2022-08-27T13:10:31.916Z,4.72
2022-08-27T13:16:21.953Z,5.32
2022-08-27T13:18:52.638Z,5.40
2022-08-27T13:21:32.721Z,4.68
2022-08-27T13:24:06.361Z,4.53
2022-08-27T13:26:38.924Z,4.63
2022-08-27T13:29:07.920Z,4.80
2022-08-27T13:31:38.606Z,5.20
2022-08-27T13:34:07.060Z,4.80
2022-08-27T13:36:54.886Z,5.28
2022-08-27T13:39:22.325Z,4.60
2022-08-27T13:41:49.619Z,4.70
2022-08-27T13:44:26.911Z,4.80
2022-08-27T13:47:05.020Z,4.93
2022-08-27T13:49:40.210Z,5.25
2022-08-27T13:52:34.501Z,4.90
2022-08-27T13:55:17.289Z,4.82
2022-08-27T13:57:51.849Z,5.40
2022-08-27T14:00:32.702Z,5.18
2022-08-27T14:03:03.470Z,5.28
2022-08-27T14:05:33.948Z,5.70
2022-08-27T14:08:17.900Z,5.50
2022-08-27T14:10:49.281Z,5.40
2022-08-27T14:13:16.145Z,5.28
2022-08-27T14:15:53.054Z,4.93
2022-08-27T14:18:58.932Z,5.75
2022-08-27T14:21:30.401Z,6.20
2022-08-27T14:24:02.672Z,5.78
2022-08-27T14:26:37.914Z,5.45
2022-08-27T14:29:12.003Z,5.60
2022-08-27T14:31:39.416Z,6.28
2022-08-27T14:34:08.331Z,5.25
2022-08-27T14:36:42.193Z,5.53
2022-08-27T14:39:11.052Z,5.13
2022-08-27T14:41:38.532Z,5.28
2022-08-27T14:44:09.605Z,5.78
2022-08-27T14:46:41.388Z,5.72
2022-08-27T14:49:23.313Z,5.70
2022-08-27T14:51:50.376Z,6.35
2022-08-27T14:54:17.218Z,6.40
2022-08-27T14:56:44.632Z,5.70
2022-08-27T14:59:11.823Z,5.45
2022-08-27T15:01:41.390Z,5.55
2022-08-27T15:04:08.898Z,5.30
2022-08-27T15:06:35.822Z,5.60
2022-08-27T15:09:02.958Z,5.68
2022-08-27T15:11:34.768Z,5.18
2022-08-27T15:14:16.334Z,5.25
2022-08-27T15:16:44.143Z,5.60
2022-08-27T15:19:13.620Z,4.72
2022-08-27T15:21:44.133Z,5.50
2022-08-27T15:24:38.505Z,4.88
2022-08-27T15:27:05.687Z,5.25
2022-08-27T15:29:37.528Z,5.25
2022-08-27T15:32:06.008Z,5.25
2022-08-27T15:34:32.862Z,5.90
2022-08-27T15:37:03.133Z,4.82
2022-08-27T15:39:30.093Z,5.00
2022-08-27T15:42:06.837Z,4.82
2022-08-27T15:44:35.049Z,5.05
2022-08-27T15:47:04.460Z,5.60
2022-08-27T15:49:31.289Z,5.07
2022-08-27T15:51:59.574Z,5.88
2022-08-27T15:54:27.645Z,5.80
2022-08-27T15:56:59.937Z,5.60
2022-08-27T15:59:27.807Z,5.22
2022-08-27T16:01:55.091Z,5.93
2022-08-27T16:04:28.011Z,7.28
2022-08-27T16:06:56.317Z,6.18
2022-08-27T16:09:23.338Z,6.68
2022-08-27T16:11:50.180Z,7.22
2022-08-27T16:14:18.479Z,5.10
2022-08-27T16:16:47.368Z,5.60
2022-08-27T16:19:16.641Z,5.30
2022-08-27T16:21:43.970Z,4.82
2022-08-27T16:24:11.006Z,4.93
2022-08-27T16:26:38.966Z,4.60
2022-08-27T16:29:06.938Z,5.30
2022-08-27T16:31:35.021Z,5.07
2022-08-27T16:34:05.983Z,4.97
2022-08-27T16:36:33.392Z,5.30
2022-08-27T16:39:00.353Z,5.03
2022-08-27T16:41:27.837Z,5.70
2022-08-27T16:43:54.627Z,4.95
2022-08-27T16:46:21.496Z,4.95
2022-08-27T16:49:06.858Z,4.78
2022-08-27T16:51:46.737Z,5.32
2022-08-27T16:54:16.674Z,4.82
2022-08-27T16:56:46.323Z,5.22
2022-08-27T16:59:13.321Z,5.30
2022-08-27T17:01:41.918Z,5.03
2022-08-27T17:04:16.353Z,6.50
2022-08-27T17:06:51.733Z,6.78
2022-08-27T17:09:19.258Z,6.80
2022-08-27T17:11:54.737Z,7.07
2022-08-27T17:14:21.898Z,6.88
2022-08-27T17:16:51.462Z,5.90
2022-08-27T17:19:20.588Z,6.18
2022-08-27T17:21:48.599Z,5.20
2022-08-27T17:24:15.520Z,5.55
2022-08-27T17:26:42.536Z,5.32
2022-08-27T17:29:09.433Z,4.38
2022-08-27T17:31:40.336Z,5.18
2022-08-27T17:34:14.378Z,5.30
2022-08-27T17:36:44.535Z,5.00
2022-08-27T17:39:13.310Z,5.57
2022-08-27T17:41:44.234Z,4.95
2022-08-27T17:44:37.895Z,4.68
2022-08-27T17:47:08.022Z,5.60
2022-08-27T17:49:40.422Z,5.72
2022-08-27T17:52:12.910Z,5.15
2022-08-27T17:54:46.878Z,5.10
2022-08-27T17:57:26.597Z,5.00
2022-08-27T17:59:55.135Z,5.95
2022-08-27T18:02:32.218Z,4.80
2022-08-27T18:05:02.114Z,4.90
2022-08-27T18:07:31.498Z,5.55
2022-08-27T18:09:58.635Z,5.75
2022-08-27T18:12:27.710Z,5.38
2022-08-27T18:15:29.508Z,5.43
2022-08-27T18:17:57.301Z,4.80
2022-08-27T18:20:28.634Z,5.38
2022-08-27T18:22:56.274Z,5.18
2022-08-27T18:25:30.614Z,4.95
2022-08-27T18:28:06.617Z,5.65
2022-08-27T18:30:40.660Z,5.43
2022-08-27T18:33:08.373Z,5.00
2022-08-27T18:35:37.043Z,5.35
2022-08-27T18:38:06.282Z,5.30
2022-08-27T18:40:42.090Z,5.60
2022-08-27T18:43:09.414Z,4.45
2022-08-27T18:45:37.704Z,5.45
2022-08-27T18:48:14.898Z,5.27
2022-08-27T18:50:50.446Z,5.53
2022-08-27T18:53:22.663Z,5.68
2022-08-27T18:55:51.670Z,5.13
2022-08-27T18:58:21.710Z,5.72
2022-08-27T19:00:54.373Z,5.13
2022-08-27T19:03:39.539Z,5.37
2022-08-27T19:06:08.868Z,5.70
2022-08-27T19:08:39.412Z,5.28
2022-08-27T19:11:06.541Z,5.87
2022-08-27T19:13:34.342Z,5.47
2022-08-27T19:16:16.274Z,5.20
2022-08-27T19:18:43.845Z,5.38
2022-08-27T19:21:15.191Z,5.60
2022-08-27T19:23:42.831Z,5.33
2022-08-27T19:26:18.512Z,5.07
2022-08-27T19:28:46.040Z,5.45
2022-08-27T19:31:15.316Z,5.73
2022-08-27T19:33:44.031Z,5.77
2022-08-27T19:36:15.923Z,5.40
2022-08-27T19:38:45.538Z,5.43
2022-08-27T19:41:13.399Z,5.50
2022-08-27T19:43:43.850Z,6.10
2022-08-27T19:46:17.653Z,6.03
2022-08-27T19:48:44.523Z,5.50
2022-08-27T19:51:11.691Z,6.33
2022-08-27T19:53:38.564Z,6.10
2022-08-27T19:56:08.962Z,6.03
2022-08-27T19:58:36.014Z,6.00
2022-08-27T20:01:05.660Z,5.40
2022-08-27T20:03:35.728Z,5.83
2022-08-27T20:06:02.728Z,5.43
2022-08-27T20:08:29.642Z,5.57
2022-08-27T20:10:56.449Z,5.67
2022-08-27T20:13:23.302Z,6.43
2022-08-27T20:15:51.037Z,6.57
2022-08-27T20:18:19.219Z,6.10
2022-08-27T20:20:46.314Z,6.60
2022-08-27T20:23:13.866Z,5.60
2022-08-27T20:25:43.041Z,6.07
2022-08-27T20:28:37.741Z,5.67
2022-08-27T20:30:59.321Z,6.37
2022-08-27T20:33:27.059Z,6.40
2022-08-27T20:35:56.505Z,6.40
2022-08-27T20:38:23.555Z,6.37
2022-08-27T20:40:50.948Z,6.53
2022-08-27T20:43:18.771Z,5.30
2022-08-27T20:45:46.016Z,6.30
2022-08-27T20:48:13.348Z,6.07
2022-08-27T20:50:43.483Z,6.30
2022-08-27T20:53:10.482Z,6.03
2022-08-27T20:55:37.308Z,5.83
2022-08-27T20:58:23.040Z,6.10
2022-08-27T21:00:54.066Z,5.93
2022-08-27T21:03:21.427Z,6.60
2022-08-27T21:05:51.362Z,6.23
2022-08-27T21:08:21.008Z,6.20
2022-08-27T21:10:52.947Z,6.40
2022-08-27T21:13:21.439Z,6.37
2022-08-27T21:15:54.685Z,5.50
2022-08-27T21:18:29.707Z,6.47
2022-08-27T21:20:58.672Z,6.03
2022-08-27T21:23:27.695Z,6.63
2022-08-27T21:26:06.189Z,6.10
2022-08-27T21:28:33.662Z,5.67
2022-08-27T21:31:00.685Z,6.03
2022-08-27T21:33:27.892Z,6.00
2022-08-27T21:35:55.374Z,5.77
2022-08-27T21:38:22.561Z,5.63
2022-08-27T21:40:49.424Z,5.70
2022-08-27T21:43:16.268Z,5.67
2022-08-27T21:45:44.015Z,5.43
2022-08-27T21:48:11.544Z,5.77
2022-08-27T21:50:38.531Z,5.70
2022-08-27T21:53:05.451Z,5.50
2022-08-27T21:55:33.411Z,5.00
2022-08-27T21:58:00.288Z,5.40
2022-08-27T22:00:30.283Z,5.03
2022-08-27T22:02:57.272Z,5.33
2022-08-27T22:05:24.623Z,4.93
2022-08-27T22:07:51.526Z,5.50
2022-08-27T22:10:18.384Z,5.63
2022-08-27T22:12:45.259Z,4.83
2022-08-27T22:15:12.337Z,4.40
2022-08-27T22:17:39.223Z,3.87
2022-08-27T22:20:09.634Z,3.93
2022-08-27T22:22:36.537Z,4.10
2022-08-27T22:25:05.119Z,4.00
2022-08-27T22:27:32.548Z,3.80
2022-08-27T22:29:59.396Z,4.47
2022-08-27T22:32:26.224Z,4.50
2022-08-27T22:34:53.036Z,4.33
2022-08-27T22:37:19.864Z,4.13
2022-08-27T22:39:46.662Z,3.87
2022-08-27T22:42:17.817Z,3.17
2022-08-27T22:44:45.461Z,3.40
2022-08-27T22:47:14.837Z,3.67
2022-08-27T22:49:43.766Z,2.80
2022-08-27T22:52:10.691Z,3.50
2022-08-27T22:54:38.045Z,3.17
2022-08-27T22:57:05.386Z,3.40
2022-08-27T22:59:32.528Z,3.43
2022-08-27T23:02:01.627Z,3.13
2022-08-27T23:04:51.287Z,2.70
2022-08-27T23:07:17.969Z,2.50
2022-08-27T23:09:44.948Z,2.77
2022-08-27T23:12:11.821Z,2.90
2022-08-27T23:14:38.691Z,2.67
2022-08-27T23:17:05.535Z,2.97
2022-08-27T23:19:32.375Z,2.70
2022-08-27T23:21:59.318Z,2.70
2022-08-27T23:24:26.759Z,2.50
2022-08-27T23:27:12.289Z,2.80
2022-08-27T23:29:39.258Z,2.60
2022-08-27T23:32:06.018Z,3.00
2022-08-27T23:34:33.287Z,2.23
2022-08-27T23:37:03.391Z,2.40
2022-08-27T23:39:30.317Z,2.43
2022-08-27T23:41:57.092Z,2.73
2022-08-27T23:44:28.637Z,2.70
2022-08-27T23:46:55.613Z,2.37
2022-08-27T23:49:22.467Z,2.23
2022-08-27T23:51:49.359Z,2.57
2022-08-27T23:54:16.149Z,2.50
2022-08-27T23:56:42.996Z,2.33
2022-08-27T23:59:09.946Z,2.03
